Time;durP1;ratioP1;P1;durP2;ratioP2;P2;SDS_P1;SDS_P2;PMS_P1;PMS_P2;Temp;Humidity;BMP_temperature;BMP_pressure;BME280_temperature;BME280_humidity;BME280_pressure;Samples;Min_cycle;Max_cycle;Signal;HPM_P1;HPM_P2
2023/03/04 00:00:07;;;;;;;138.27;73.32;;;;;;;;;;517865;28;1261;-69
2023/03/04 00:00:23;;;;;;;138.68;73.50;;;;;;;;;;514831;28;1297;-69
2023/03/04 00:00:44;;;;;;;135.33;71.07;;;;;;;;;;517017;28;1208;-69
2023/03/04 00:00:59;;;;;;;130.40;69.15;;;;;;;;;;514642;28;1384;-69
2023/03/04 00:01:15;;;;;;;133.03;71.07;;;;;;;;;;515720;28;1484;-69
2023/03/04 00:01:30;;;;;;;134.90;72.57;;;;;;;;;;515974;28;1283;-69
2023/03/04 00:01:45;;;;;;;136.82;73.32;;;;;;;;;;514785;28;1323;-69
2023/03/04 00:02:01;;;;;;;138.30;72.27;;;;;;;;;;515364;28;1335;-69
2023/03/04 00:02:16;;;;;;;138.02;71.63;;;;;;;;;;518571;28;1248;-69
2023/03/04 00:02:32;;;;;;;134.20;71.20;;;;;;;;;;517653;28;1250;-69
2023/03/04 00:02:47;;;;;;;132.65;71.32;;;;;;;;;;519319;28;1274;-69
2023/03/04 00:03:02;;;;;;;134.53;71.33;;;;;;;;;;516512;28;1911;-69
2023/03/04 00:03:18;;;;;;;136.47;72.10;;;;;;;;;;518546;28;1216;-69
2023/03/04 00:03:33;;;;;;;137.07;72.55;;;;;;;;;;518103;28;1362;-69
2023/03/04 00:03:48;;;;;;;135.90;71.63;;;;;;;;;;518186;28;1334;-69
2023/03/04 00:04:04;;;;;;;137.73;72.17;;;;;;;;;;517172;28;1443;-69
2023/03/04 00:04:19;;;;;;;141.38;73.25;;;;;;;;;;520779;28;1363;-69
2023/03/04 00:04:35;;;;;;;140.50;73.83;;;;;;;;;;520571;28;1301;-69
2023/03/04 00:04:50;;;;;;;140.40;74.00;;;;;;;;;;518089;28;1469;-69
2023/03/04 00:05:06;;;;;;;139.53;73.00;;;;;;;;;;513567;28;1388;-69
2023/03/04 00:05:21;;;;;;;137.73;72.85;;;;;;;;;;515488;28;1235;-69
2023/03/04 00:05:37;;;;;;;140.03;73.23;;;;;;;;;;517108;28;1327;-69
2023/03/04 00:05:52;;;;;;;147.40;74.85;;;;;;;;;;515590;28;1296;-69
2023/03/04 00:06:15;;;;;;;147.27;75.38;;;;;;;;;;433031;28;10000724;-69
2023/03/04 00:06:40;;;;;;;142.29;73.92;;;;;;;;;;147851;28;10001336;-70
2023/03/04 00:06:55;;;;;;;138.83;73.97;;;;;;;;;;516781;28;2015;-69
2023/03/04 00:07:15;;;;;;;139.80;73.80;;;;;;;;;;518152;28;1277;-69
2023/03/04 00:07:30;;;;;;;142.32;74.95;;;;;;;;;;519323;28;1053;-69
2023/03/04 00:07:46;;;;;;;143.10;75.28;;;;;;;;;;520856;28;1239;-69
2023/03/04 00:08:01;;;;;;;139.90;74.47;;;;;;;;;;519585;28;1441;-69
2023/03/04 00:08:17;;;;;;;134.52;72.53;;;;;;;;;;517230;28;1296;-69
2023/03/04 00:08:32;;;;;;;134.87;72.57;;;;;;;;;;516674;28;1228;-69
2023/03/04 00:08:48;;;;;;;136.32;73.03;;;;;;;;;;513938;28;1431;-69
2023/03/04 00:09:04;;;;;;;135.67;73.23;;;;;;;;;;516801;28;1225;-70
2023/03/04 00:09:19;;;;;;;133.98;72.95;;;;;;;;;;517277;28;1355;-69
2023/03/04 00:09:35;;;;;;;130.63;71.63;;;;;;;;;;517564;28;1265;-69
2023/03/04 00:09:50;;;;;;;129.48;70.47;;;;;;;;;;516880;28;1470;-69
2023/03/04 00:10:06;;;;;;;135.70;72.10;;;;;;;;;;516088;28;1329;-69
2023/03/04 00:10:21;;;;;;;133.50;72.03;;;;;;;;;;519139;28;1204;-69
2023/03/04 00:10:36;;;;;;;129.65;69.95;;;;;;;;;;519887;28;1221;-69
2023/03/04 00:10:52;;;;;;;128.67;70.10;;;;;;;;;;519204;28;1306;-69
2023/03/04 00:11:08;;;;;;;128.70;70.22;;;;;;;;;;520575;28;1123;-69
2023/03/04 00:11:23;;;;;;;134.03;71.40;;;;;;;;;;518447;28;1268;-69
2023/03/04 00:11:39;;;;;;;135.70;71.70;;;;;;;;;;521457;28;1425;-69
2023/03/04 00:11:54;;;;;;;134.18;71.40;;;;;;;;;;522816;28;1313;-70
2023/03/04 00:12:09;;;;;;;136.77;72.63;;;;;;;;;;521604;28;1247;-69
2023/03/04 00:12:25;;;;;;;136.20;72.43;;;;;;;;;;520855;28;1259;-69
2023/03/04 00:12:40;;;;;;;131.52;71.28;;;;;;;;;;521133;28;1292;-69
2023/03/04 00:12:56;;;;;;;134.03;71.70;;;;;;;;;;521370;28;1200;-69
2023/03/04 00:13:11;;;;;;;137.37;72.07;;;;;;;;;;521290;28;1157;-69
2023/03/04 00:13:27;;;;;;;139.47;73.00;;;;;;;;;;519980;28;1251;-69
2023/03/04 00:13:42;;;;;;;136.40;72.57;;;;;;;;;;518511;28;1121;-69
2023/03/04 00:13:57;;;;;;;133.23;72.07;;;;;;;;;;517592;28;1351;-70
2023/03/04 00:14:12;;;;;;;136.70;73.67;;;;;;;;;;516850;28;1299;-69
2023/03/04 00:14:28;;;;;;;133.13;71.70;;;;;;;;;;519806;28;1381;-69
2023/03/04 00:14:43;;;;;;;133.10;70.60;;;;;;;;;;519531;28;1221;-69
2023/03/04 00:14:58;;;;;;;137.67;71.83;;;;;;;;;;516699;28;1259;-69
2023/03/04 00:15:14;;;;;;;139.43;71.95;;;;;;;;;;517221;28;1298;-69
2023/03/04 00:15:29;;;;;;;133.53;70.87;;;;;;;;;;520337;28;1320;-69
2023/03/04 00:15:44;;;;;;;131.70;70.67;;;;;;;;;;519427;28;1325;-69
2023/03/04 00:16:00;;;;;;;137.47;71.90;;;;;;;;;;521448;28;1342;-69
2023/03/04 00:16:15;;;;;;;137.03;72.70;;;;;;;;;;520149;28;1191;-69
2023/03/04 00:16:30;;;;;;;134.73;71.50;;;;;;;;;;520914;28;1356;-69
2023/03/04 00:16:47;;;;;;;131.88;69.80;;;;;;;;;;516936;28;1299;-69
2023/03/04 00:17:03;;;;;;;132.25;70.32;;;;;;;;;;518197;28;1457;-69
2023/03/04 00:17:19;;;;;;;136.80;72.30;;;;;;;;;;517157;28;1354;-69
2023/03/04 00:17:34;;;;;;;138.35;72.00;;;;;;;;;;516677;28;1217;-69
2023/03/04 00:17:49;;;;;;;136.27;71.33;;;;;;;;;;519369;28;1276;-69
2023/03/04 00:18:05;;;;;;;139.48;72.88;;;;;;;;;;518808;28;1244;-69
2023/03/04 00:18:20;;;;;;;140.83;73.87;;;;;;;;;;521674;28;1252;-70
2023/03/04 00:18:35;;;;;;;137.17;72.60;;;;;;;;;;519621;28;1407;-69
2023/03/04 00:18:51;;;;;;;136.38;71.75;;;;;;;;;;520813;28;1371;-69
2023/03/04 00:19:06;;;;;;;139.20;72.27;;;;;;;;;;517287;28;1386;-69
2023/03/04 00:19:21;;;;;;;139.80;72.53;;;;;;;;;;516506;28;1115;-69
2023/03/04 00:19:37;;;;;;;141.27;72.40;;;;;;;;;;519348;28;1382;-69
2023/03/04 00:19:52;;;;;;;143.13;72.83;;;;;;;;;;518012;28;1279;-69
2023/03/04 00:20:08;;;;;;;141.43;73.23;;;;;;;;;;519366;28;1285;-69
2023/03/04 00:20:23;;;;;;;139.57;72.95;;;;;;;;;;519404;28;1280;-69
2023/03/04 00:20:39;;;;;;;140.80;73.13;;;;;;;;;;519022;28;1192;-69
2023/03/04 00:20:54;;;;;;;142.07;73.03;;;;;;;;;;519194;28;1129;-69
2023/03/04 00:21:09;;;;;;;139.40;72.47;;;;;;;;;;519405;28;1218;-69
2023/03/04 00:21:25;;;;;;;139.67;72.73;;;;;;;;;;519194;28;1346;-71
2023/03/04 00:21:40;;;;;;;139.90;72.60;;;;;;;;;;518330;28;1237;-69
2023/03/04 00:21:55;;;;;;;136.93;72.25;;;;;;;;;;519817;28;1175;-69
2023/03/04 00:22:11;;;;;;;134.77;71.57;;;;;;;;;;518657;28;1296;-69
2023/03/04 00:22:26;;;;;;;139.90;72.22;;;;;;;;;;521934;28;1277;-69
2023/03/04 00:22:41;;;;;;;141.57;72.07;;;;;;;;;;521134;28;1412;-69
2023/03/04 00:22:57;;;;;;;139.57;71.93;;;;;;;;;;518096;28;1914;-70
2023/03/04 00:23:12;;;;;;;140.07;72.63;;;;;;;;;;519962;28;1342;-69
2023/03/04 00:23:27;;;;;;;136.63;71.73;;;;;;;;;;518551;28;1382;-69
2023/03/04 00:23:42;;;;;;;138.77;72.57;;;;;;;;;;519439;28;1373;-69
2023/03/04 00:23:58;;;;;;;141.57;73.47;;;;;;;;;;519053;28;1434;-69
2023/03/04 00:24:13;;;;;;;140.30;73.60;;;;;;;;;;518412;28;1421;-69
2023/03/04 00:24:29;;;;;;;139.73;73.40;;;;;;;;;;521295;28;1176;-69
2023/03/04 00:24:44;;;;;;;139.02;72.85;;;;;;;;;;518350;28;1335;-69
2023/03/04 00:24:59;;;;;;;139.23;72.60;;;;;;;;;;521531;28;1431;-69
2023/03/04 00:25:15;;;;;;;139.13;72.20;;;;;;;;;;518757;28;1251;-69
2023/03/04 00:25:36;;;;;;;139.70;72.32;;;;;;;;;;518613;28;1278;-70
2023/03/04 00:25:51;;;;;;;136.25;71.57;;;;;;;;;;518704;28;1360;-70
2023/03/04 00:26:08;;;;;;;140.63;72.17;;;;;;;;;;519383;28;1327;-67
2023/03/04 00:26:23;;;;;;;142.30;72.80;;;;;;;;;;516666;28;1337;-67
2023/03/04 00:26:39;;;;;;;139.93;73.03;;;;;;;;;;517644;28;1263;-68
2023/03/04 00:26:54;;;;;;;139.70;72.95;;;;;;;;;;518268;28;1107;-68
2023/03/04 00:27:09;;;;;;;141.40;73.20;;;;;;;;;;519667;28;1212;-67
2023/03/04 00:27:25;;;;;;;139.38;72.80;;;;;;;;;;519657;28;1232;-67
2023/03/04 00:27:40;;;;;;;135.70;72.53;;;;;;;;;;520251;28;1235;-69
2023/03/04 00:27:57;;;;;;;135.30;72.55;;;;;;;;;;521157;28;1299;-68
2023/03/04 00:28:12;;;;;;;134.40;71.47;;;;;;;;;;520864;28;1269;-67
2023/03/04 00:28:27;;;;;;;135.67;71.87;;;;;;;;;;521746;28;1312;-67
2023/03/04 00:28:43;;;;;;;138.43;73.05;;;;;;;;;;519404;28;1365;-67
2023/03/04 00:28:58;;;;;;;137.97;72.50;;;;;;;;;;518533;28;1240;-67
2023/03/04 00:29:13;;;;;;;134.45;71.53;;;;;;;;;;520266;28;1206;-68
2023/03/04 00:29:29;;;;;;;133.23;70.70;;;;;;;;;;519185;28;1211;-68
2023/03/04 00:29:44;;;;;;;128.07;69.30;;;;;;;;;;519391;28;1268;-67
2023/03/04 00:29:59;;;;;;;122.43;67.85;;;;;;;;;;519209;28;1352;-67
2023/03/04 00:30:15;;;;;;;125.80;68.60;;;;;;;;;;518232;28;1227;-68
2023/03/04 00:30:30;;;;;;;125.50;68.85;;;;;;;;;;520896;28;1016;-68
2023/03/04 00:30:46;;;;;;;127.50;68.37;;;;;;;;;;521499;28;1460;-68
2023/03/04 00:31:01;;;;;;;130.55;68.90;;;;;;;;;;519002;28;1323;-68
2023/03/04 00:31:16;;;;;;;129.10;69.73;;;;;;;;;;520025;28;1221;-68
2023/03/04 00:31:32;;;;;;;129.23;70.53;;;;;;;;;;519106;28;1347;-68
2023/03/04 00:31:47;;;;;;;129.15;69.85;;;;;;;;;;518657;28;1085;-67
2023/03/04 00:32:03;;;;;;;129.90;70.13;;;;;;;;;;519278;28;1203;-68
2023/03/04 00:32:18;;;;;;;128.60;70.80;;;;;;;;;;518684;28;1227;-68
2023/03/04 00:32:33;;;;;;;126.78;69.90;;;;;;;;;;519375;28;1450;-68
2023/03/04 00:32:49;;;;;;;128.13;69.30;;;;;;;;;;519178;28;1291;-68
2023/03/04 00:33:04;;;;;;;129.00;69.03;;;;;;;;;;520771;28;1323;-68
2023/03/04 00:33:20;;;;;;;129.83;69.80;;;;;;;;;;519651;28;1191;-67
2023/03/04 00:33:35;;;;;;;133.70;72.03;;;;;;;;;;520493;28;1232;-67
2023/03/04 00:33:50;;;;;;;129.35;71.15;;;;;;;;;;519037;28;1349;-68
2023/03/04 00:34:06;;;;;;;127.17;69.97;;;;;;;;;;517476;28;1268;-67
2023/03/04 00:34:21;;;;;;;130.70;69.95;;;;;;;;;;519524;28;1285;-68
2023/03/04 00:34:36;;;;;;;129.77;69.23;;;;;;;;;;519572;28;1083;-68
2023/03/04 00:34:52;;;;;;;128.73;69.47;;;;;;;;;;521244;28;1268;-67
2023/03/04 00:35:07;;;;;;;130.60;69.60;;;;;;;;;;519950;28;1285;-67
2023/03/04 00:35:22;;;;;;;128.20;68.87;;;;;;;;;;519259;28;1310;-67
2023/03/04 00:35:38;;;;;;;128.43;69.32;;;;;;;;;;518017;28;1425;-67
2023/03/04 00:35:53;;;;;;;126.33;68.37;;;;;;;;;;516903;28;1220;-68
2023/03/04 00:36:09;;;;;;;122.33;67.33;;;;;;;;;;514711;28;1230;-68
2023/03/04 00:36:25;;;;;;;124.60;69.30;;;;;;;;;;518779;28;1287;-68
2023/03/04 00:36:43;;;;;;;122.43;68.00;;;;;;;;;;521767;28;1267;-68
2023/03/04 00:37:00;;;;;;;119.82;66.13;;;;;;;;;;521542;28;1369;-67
2023/03/04 00:37:15;;;;;;;123.75;68.72;;;;;;;;;;518501;28;1310;-67
2023/03/04 00:37:31;;;;;;;127.60;70.35;;;;;;;;;;520893;28;1306;-68
2023/03/04 00:37:46;;;;;;;126.97;69.13;;;;;;;;;;518907;28;1196;-68
2023/03/04 00:38:01;;;;;;;126.43;68.83;;;;;;;;;;520989;28;1093;-68
2023/03/04 00:38:16;;;;;;;123.50;68.60;;;;;;;;;;519717;28;1514;-68
2023/03/04 00:38:32;;;;;;;120.13;67.60;;;;;;;;;;518672;28;1188;-68
2023/03/04 00:38:47;;;;;;;122.10;68.10;;;;;;;;;;523319;28;1222;-68
2023/03/04 00:39:02;;;;;;;126.07;69.10;;;;;;;;;;523220;28;1423;-68
2023/03/04 00:39:18;;;;;;;124.77;69.20;;;;;;;;;;520916;28;1581;-68
2023/03/04 00:39:33;;;;;;;124.63;69.13;;;;;;;;;;519531;28;1482;-68
2023/03/04 00:39:48;;;;;;;126.40;68.75;;;;;;;;;;521686;28;1181;-68
2023/03/04 00:40:04;;;;;;;127.17;68.63;;;;;;;;;;521051;28;1221;-68
2023/03/04 00:40:20;;;;;;;124.75;67.68;;;;;;;;;;520071;28;1261;-67
2023/03/04 00:40:35;;;;;;;115.90;66.03;;;;;;;;;;518456;28;1365;-68
2023/03/04 00:40:51;;;;;;;116.00;66.40;;;;;;;;;;519182;28;1261;-67
2023/03/04 00:41:06;;;;;;;123.27;68.37;;;;;;;;;;521347;28;1196;-67
2023/03/04 00:41:21;;;;;;;126.28;69.10;;;;;;;;;;521009;28;1236;-67
2023/03/04 00:41:37;;;;;;;123.03;68.10;;;;;;;;;;521518;28;1264;-67
2023/03/04 00:41:52;;;;;;;122.53;67.47;;;;;;;;;;519073;28;1224;-67
2023/03/04 00:42:08;;;;;;;123.87;67.97;;;;;;;;;;520948;28;1401;-68
2023/03/04 00:42:23;;;;;;;123.23;68.93;;;;;;;;;;518250;28;1184;-68
2023/03/04 00:42:38;;;;;;;125.53;69.20;;;;;;;;;;520472;28;1341;-68
2023/03/04 00:42:54;;;;;;;124.50;68.83;;;;;;;;;;518285;28;1924;-67
2023/03/04 00:43:09;;;;;;;121.80;67.43;;;;;;;;;;521917;28;1185;-67
2023/03/04 00:43:24;;;;;;;121.05;67.15;;;;;;;;;;518538;28;1314;-67
2023/03/04 00:43:39;;;;;;;123.77;68.73;;;;;;;;;;519309;28;1306;-68
2023/03/04 00:43:55;;;;;;;123.03;68.70;;;;;;;;;;519470;28;1342;-68
2023/03/04 00:44:10;;;;;;;119.88;67.57;;;;;;;;;;520887;28;1199;-68
2023/03/04 00:44:25;;;;;;;123.30;67.37;;;;;;;;;;519403;28;1225;-69
2023/03/04 00:44:41;;;;;;;122.30;67.40;;;;;;;;;;520424;28;1531;-68
2023/03/04 00:44:56;;;;;;;114.85;65.40;;;;;;;;;;523375;28;1286;-68
2023/03/04 00:45:11;;;;;;;113.67;65.10;;;;;;;;;;521234;28;1659;-68
2023/03/04 00:45:27;;;;;;;116.97;66.43;;;;;;;;;;520548;28;1245;-68
2023/03/04 00:45:42;;;;;;;119.63;67.18;;;;;;;;;;521659;28;1165;-67
2023/03/04 00:45:58;;;;;;;120.60;67.83;;;;;;;;;;521522;28;1302;-68
2023/03/04 00:46:14;;;;;;;123.47;68.20;;;;;;;;;;518459;28;1394;-68
2023/03/04 00:46:29;;;;;;;124.43;68.55;;;;;;;;;;517286;28;1353;-68
2023/03/04 00:46:44;;;;;;;118.90;66.57;;;;;;;;;;518527;28;1314;-68
2023/03/04 00:46:59;;;;;;;119.43;67.03;;;;;;;;;;522317;28;1409;-68
2023/03/04 00:47:15;;;;;;;123.93;68.60;;;;;;;;;;521089;28;1782;-67
2023/03/04 00:47:30;;;;;;;121.63;67.47;;;;;;;;;;520794;28;1307;-67
2023/03/04 00:47:46;;;;;;;118.38;65.78;;;;;;;;;;521629;28;1230;-67
2023/03/04 00:48:01;;;;;;;121.33;66.90;;;;;;;;;;520582;28;1170;-68
2023/03/04 00:48:16;;;;;;;126.03;69.07;;;;;;;;;;521621;28;1405;-67
2023/03/04 00:48:32;;;;;;;126.60;68.90;;;;;;;;;;518996;28;1322;-68
2023/03/04 00:48:47;;;;;;;123.00;67.07;;;;;;;;;;516551;28;1346;-68
2023/03/04 00:49:02;;;;;;;122.33;67.07;;;;;;;;;;519257;28;1629;-68
2023/03/04 00:49:18;;;;;;;123.85;67.93;;;;;;;;;;516425;28;1460;-68
2023/03/04 00:49:33;;;;;;;124.07;67.27;;;;;;;;;;518749;28;1229;-68
2023/03/04 00:49:48;;;;;;;124.18;67.18;;;;;;;;;;519555;28;1244;-67
2023/03/04 00:50:04;;;;;;;123.77;68.43;;;;;;;;;;517908;28;1300;-68
2023/03/04 00:50:19;;;;;;;124.20;68.10;;;;;;;;;;517918;28;1203;-68
2023/03/04 00:50:36;;;;;;;124.60;67.93;;;;;;;;;;517148;28;1110;-68
2023/03/04 00:50:52;;;;;;;125.43;68.90;;;;;;;;;;517054;28;1299;-68
2023/03/04 00:51:08;;;;;;;127.65;70.00;;;;;;;;;;518261;28;1291;-68
2023/03/04 00:51:23;;;;;;;124.30;68.67;;;;;;;;;;517305;28;1214;-68
2023/03/04 00:51:38;;;;;;;119.78;67.07;;;;;;;;;;519369;28;1186;-68
2023/03/04 00:51:54;;;;;;;123.90;67.93;;;;;;;;;;518723;28;1106;-68
2023/03/04 00:52:09;;;;;;;123.07;67.43;;;;;;;;;;519779;28;1174;-68
2023/03/04 00:52:24;;;;;;;117.90;66.13;;;;;;;;;;520853;28;1256;-68
2023/03/04 00:52:40;;;;;;;119.40;66.97;;;;;;;;;;519174;28;1300;-67
2023/03/04 00:52:55;;;;;;;116.25;66.28;;;;;;;;;;520046;28;1308;-68
2023/03/04 00:53:10;;;;;;;117.87;65.63;;;;;;;;;;519625;28;1216;-68
2023/03/04 00:53:26;;;;;;;121.27;65.67;;;;;;;;;;518799;28;1469;-67
2023/03/04 00:53:41;;;;;;;117.07;64.63;;;;;;;;;;519612;28;1324;-68
2023/03/04 00:53:57;;;;;;;120.93;65.43;;;;;;;;;;515916;28;1638;-68
2023/03/04 00:54:12;;;;;;;121.50;66.03;;;;;;;;;;517046;28;1518;-68
2023/03/04 00:54:27;;;;;;;114.73;64.57;;;;;;;;;;519217;28;1316;-68
2023/03/04 00:54:43;;;;;;;118.03;65.40;;;;;;;;;;521679;28;1417;-68
2023/03/04 00:54:58;;;;;;;120.17;65.47;;;;;;;;;;521295;28;1326;-68
2023/03/04 00:55:13;;;;;;;116.83;65.10;;;;;;;;;;519775;28;1390;-68
2023/03/04 00:55:29;;;;;;;115.15;65.13;;;;;;;;;;520961;28;1218;-68
2023/03/04 00:55:44;;;;;;;116.00;65.53;;;;;;;;;;521431;28;1141;-67
2023/03/04 00:56:00;;;;;;;118.72;66.65;;;;;;;;;;518389;28;1293;-68
2023/03/04 00:56:15;;;;;;;119.67;66.50;;;;;;;;;;518120;28;1279;-68
2023/03/04 00:56:30;;;;;;;116.70;65.50;;;;;;;;;;518988;28;1284;-68
2023/03/04 00:56:46;;;;;;;112.40;64.25;;;;;;;;;;518418;28;1233;-68
2023/03/04 00:57:01;;;;;;;112.40;63.77;;;;;;;;;;521114;28;1414;-68
2023/03/04 00:57:16;;;;;;;113.33;64.67;;;;;;;;;;518169;28;1172;-68
2023/03/04 00:57:32;;;;;;;115.97;66.95;;;;;;;;;;517684;28;1388;-68
2023/03/04 00:57:47;;;;;;;116.10;66.33;;;;;;;;;;519159;28;1201;-68
2023/03/04 00:58:02;;;;;;;113.27;64.73;;;;;;;;;;516417;28;1192;-69
2023/03/04 00:58:18;;;;;;;116.93;65.97;;;;;;;;;;519424;28;1221;-68
2023/03/04 00:58:33;;;;;;;119.80;66.33;;;;;;;;;;521394;28;1496;-68
2023/03/04 00:58:48;;;;;;;118.93;66.20;;;;;;;;;;520904;28;1190;-68
2023/03/04 00:59:03;;;;;;;119.47;66.32;;;;;;;;;;520964;28;1137;-68
2023/03/04 00:59:19;;;;;;;117.03;65.40;;;;;;;;;;521761;28;1435;-68
2023/03/04 00:59:34;;;;;;;109.00;63.67;;;;;;;;;;519305;28;1332;-68
2023/03/04 00:59:50;;;;;;;110.75;64.38;;;;;;;;;;519573;28;1208;-68
2023/03/04 01:00:09;;;;;;;112.27;64.90;;;;;;;;;;522495;28;1235;-68
2023/03/04 01:00:24;;;;;;;102.97;61.42;;;;;;;;;;519789;28;1412;-68
2023/03/04 01:00:39;;;;;;;104.10;62.13;;;;;;;;;;519703;28;1400;-68
2023/03/04 01:00:55;;;;;;;110.67;63.50;;;;;;;;;;518975;28;1188;-68
2023/03/04 01:01:10;;;;;;;105.50;61.77;;;;;;;;;;518449;28;1362;-68
2023/03/04 01:01:25;;;;;;;108.10;62.38;;;;;;;;;;519291;28;1373;-68
2023/03/04 01:01:41;;;;;;;114.33;64.03;;;;;;;;;;519098;28;1254;-68
2023/03/04 01:01:56;;;;;;;114.17;64.03;;;;;;;;;;519162;28;1507;-68
2023/03/04 01:02:12;;;;;;;109.93;63.00;;;;;;;;;;518685;28;1618;-67
2023/03/04 01:02:27;;;;;;;108.23;62.67;;;;;;;;;;519039;28;1275;-67
2023/03/04 01:02:42;;;;;;;113.33;64.40;;;;;;;;;;517502;28;1229;-68
2023/03/04 01:02:58;;;;;;;114.93;65.00;;;;;;;;;;517361;28;2052;-68
2023/03/04 01:03:13;;;;;;;115.82;64.75;;;;;;;;;;514324;28;1424;-68
2023/03/04 01:03:31;;;;;;;113.83;64.07;;;;;;;;;;517461;28;1328;-68
2023/03/04 01:03:46;;;;;;;114.22;64.95;;;;;;;;;;518694;28;1291;-67
2023/03/04 01:04:02;;;;;;;116.70;65.40;;;;;;;;;;519776;28;1299;-67
2023/03/04 01:04:17;;;;;;;109.07;63.42;;;;;;;;;;518487;28;1295;-68
2023/03/04 01:04:32;;;;;;;107.47;63.50;;;;;;;;;;521735;28;1616;-68
2023/03/04 01:04:47;;;;;;;114.87;65.27;;;;;;;;;;521293;28;1337;-68
2023/03/04 01:05:03;;;;;;;115.35;65.03;;;;;;;;;;518513;28;1290;-67
2023/03/04 01:05:18;;;;;;;110.97;63.83;;;;;;;;;;519034;28;1216;-68
2023/03/04 01:05:34;;;;;;;111.38;64.10;;;;;;;;;;518461;28;1198;-68
2023/03/04 01:05:50;;;;;;;116.47;65.53;;;;;;;;;;519616;28;1331;-68
2023/03/04 01:06:05;;;;;;;115.97;65.73;;;;;;;;;;517495;28;1279;-68
2023/03/04 01:06:21;;;;;;;115.40;65.17;;;;;;;;;;518359;28;1412;-68
2023/03/04 01:06:36;;;;;;;117.93;65.67;;;;;;;;;;521771;28;1354;-68
2023/03/04 01:06:51;;;;;;;118.83;66.40;;;;;;;;;;518354;28;1383;-68
2023/03/04 01:07:06;;;;;;;116.20;65.00;;;;;;;;;;517164;28;1425;-68
2023/03/04 01:07:22;;;;;;;111.97;63.67;;;;;;;;;;517352;28;1205;-68
2023/03/04 01:07:37;;;;;;;111.43;64.60;;;;;;;;;;519218;28;1374;-68
2023/03/04 01:07:53;;;;;;;115.78;65.13;;;;;;;;;;521590;28;1437;-68
2023/03/04 01:08:08;;;;;;;117.43;65.33;;;;;;;;;;519461;28;1535;-68
2023/03/04 01:08:24;;;;;;;117.13;64.60;;;;;;;;;;519578;28;1258;-68
2023/03/04 01:08:39;;;;;;;115.03;64.73;;;;;;;;;;519858;28;1138;-68
2023/03/04 01:08:55;;;;;;;116.78;65.97;;;;;;;;;;518251;28;1294;-67
2023/03/04 01:09:10;;;;;;;117.13;65.23;;;;;;;;;;518715;28;1394;-68
2023/03/04 01:09:25;;;;;;;112.27;63.97;;;;;;;;;;519303;28;1176;-68
2023/03/04 01:09:41;;;;;;;113.45;64.03;;;;;;;;;;519512;28;1445;-68
2023/03/04 01:09:56;;;;;;;116.40;64.17;;;;;;;;;;517054;28;1319;-68
2023/03/04 01:10:13;;;;;;;116.03;64.22;;;;;;;;;;517072;28;1373;-68
2023/03/04 01:10:29;;;;;;;116.03;64.45;;;;;;;;;;516961;28;1326;-68
2023/03/04 01:10:44;;;;;;;114.73;64.27;;;;;;;;;;516683;28;1233;-68
2023/03/04 01:11:00;;;;;;;114.15;64.60;;;;;;;;;;519231;28;1244;-68
2023/03/04 01:11:15;;;;;;;116.57;64.93;;;;;;;;;;519487;28;1283;-68
2023/03/04 01:11:30;;;;;;;117.97;65.15;;;;;;;;;;519255;28;1307;-68
2023/03/04 01:11:46;;;;;;;118.27;64.63;;;;;;;;;;519423;28;1387;-68
2023/03/04 01:12:01;;;;;;;116.93;63.97;;;;;;;;;;515904;28;1200;-67
2023/03/04 01:12:17;;;;;;;114.25;63.97;;;;;;;;;;519694;28;1327;-67
2023/03/04 01:12:32;;;;;;;115.07;64.40;;;;;;;;;;519349;28;1200;-68
2023/03/04 01:12:47;;;;;;;116.73;64.80;;;;;;;;;;519501;28;1199;-68
2023/03/04 01:13:03;;;;;;;115.30;63.93;;;;;;;;;;518708;28;1262;-68
2023/03/04 01:13:18;;;;;;;114.70;64.00;;;;;;;;;;516221;28;1263;-68
2023/03/04 01:13:34;;;;;;;115.97;65.17;;;;;;;;;;518666;28;1223;-68
2023/03/04 01:13:49;;;;;;;116.03;65.53;;;;;;;;;;516936;28;1363;-67
2023/03/04 01:14:04;;;;;;;115.37;64.97;;;;;;;;;;519128;28;1333;-67
2023/03/04 01:14:20;;;;;;;116.23;65.43;;;;;;;;;;518968;28;1216;-68
2023/03/04 01:14:35;;;;;;;112.25;64.18;;;;;;;;;;518999;28;1391;-68
2023/03/04 01:14:50;;;;;;;106.43;61.93;;;;;;;;;;519410;28;1217;-68
2023/03/04 01:15:11;;;;;;;104.50;61.65;;;;;;;;;;517093;28;1462;-68
2023/03/04 01:15:26;;;;;;;109.15;62.75;;;;;;;;;;516840;28;1136;-67
2023/03/04 01:15:42;;;;;;;113.43;64.72;;;;;;;;;;516521;28;1342;-68
2023/03/04 01:15:57;;;;;;;118.00;65.90;;;;;;;;;;519021;28;1262;-68
2023/03/04 01:16:13;;;;;;;117.20;65.03;;;;;;;;;;521544;28;1417;-68
2023/03/04 01:16:28;;;;;;;116.53;65.05;;;;;;;;;;521355;28;1260;-68
2023/03/04 01:16:44;;;;;;;117.85;65.78;;;;;;;;;;521201;28;1372;-68
2023/03/04 01:16:59;;;;;;;120.07;66.23;;;;;;;;;;519054;28;1543;-68
2023/03/04 01:17:15;;;;;;;118.20;65.50;;;;;;;;;;520918;28;1484;-68
2023/03/04 01:17:30;;;;;;;118.30;65.63;;;;;;;;;;519324;28;1385;-68
2023/03/04 01:17:45;;;;;;;116.82;65.88;;;;;;;;;;519371;28;1322;-68
2023/03/04 01:18:01;;;;;;;115.30;64.83;;;;;;;;;;519218;28;1003;-68
2023/03/04 01:18:16;;;;;;;117.50;65.00;;;;;;;;;;516467;28;1089;-68
2023/03/04 01:18:32;;;;;;;117.97;66.00;;;;;;;;;;515674;28;1240;-68
2023/03/04 01:18:47;;;;;;;112.57;64.93;;;;;;;;;;517592;28;1469;-70
2023/03/04 01:19:02;;;;;;;109.50;63.92;;;;;;;;;;519469;28;1354;-70
2023/03/04 01:19:18;;;;;;;112.93;64.50;;;;;;;;;;518501;28;1196;-70
2023/03/04 01:19:33;;;;;;;112.10;63.20;;;;;;;;;;518228;28;1332;-70
2023/03/04 01:19:49;;;;;;;109.67;62.47;;;;;;;;;;519316;28;1404;-70
2023/03/04 01:20:06;;;;;;;111.83;63.97;;;;;;;;;;519658;28;1256;-70
2023/03/04 01:20:22;;;;;;;113.18;64.05;;;;;;;;;;518467;28;1271;-70
2023/03/04 01:20:37;;;;;;;113.87;65.10;;;;;;;;;;518460;28;1153;-70
2023/03/04 01:20:52;;;;;;;114.50;65.47;;;;;;;;;;517450;28;1317;-70
2023/03/04 01:21:08;;;;;;;112.67;64.50;;;;;;;;;;516984;28;1165;-70
2023/03/04 01:21:23;;;;;;;111.57;64.13;;;;;;;;;;517218;28;1311;-70
2023/03/04 01:21:38;;;;;;;112.45;64.22;;;;;;;;;;515613;28;1192;-70
2023/03/04 01:21:54;;;;;;;114.27;65.30;;;;;;;;;;513972;28;1220;-70
2023/03/04 01:22:11;;;;;;;112.80;64.90;;;;;;;;;;516223;28;1319;-70
2023/03/04 01:22:26;;;;;;;110.53;63.67;;;;;;;;;;518921;28;1699;-70
2023/03/04 01:22:41;;;;;;;112.07;64.63;;;;;;;;;;519482;28;1230;-69
2023/03/04 01:22:57;;;;;;;114.70;65.37;;;;;;;;;;516527;28;1916;-70
2023/03/04 01:23:12;;;;;;;114.20;64.45;;;;;;;;;;515757;28;1194;-70
2023/03/04 01:23:27;;;;;;;114.83;64.10;;;;;;;;;;517615;28;1418;-70
2023/03/04 01:23:43;;;;;;;114.67;64.37;;;;;;;;;;517488;28;1311;-70
2023/03/04 01:23:58;;;;;;;112.50;63.70;;;;;;;;;;521198;28;1373;-70
2023/03/04 01:24:13;;;;;;;113.57;63.47;;;;;;;;;;520368;28;1167;-70
2023/03/04 01:24:29;;;;;;;114.90;64.70;;;;;;;;;;522533;28;1166;-70
2023/03/04 01:24:45;;;;;;;112.03;65.40;;;;;;;;;;521591;28;1377;-70
2023/03/04 01:25:00;;;;;;;108.07;63.85;;;;;;;;;;519602;28;1464;-70
2023/03/04 01:25:15;;;;;;;106.40;62.97;;;;;;;;;;516938;28;1406;-70
2023/03/04 01:25:31;;;;;;;103.53;61.53;;;;;;;;;;517323;28;1264;-70
2023/03/04 01:25:46;;;;;;;106.07;62.63;;;;;;;;;;516627;28;1316;-70
2023/03/04 01:26:02;;;;;;;108.72;63.67;;;;;;;;;;515843;28;1311;-70
2023/03/04 01:26:17;;;;;;;105.30;61.33;;;;;;;;;;517722;28;1218;-70
2023/03/04 01:26:33;;;;;;;106.20;61.33;;;;;;;;;;521719;28;1326;-70
2023/03/04 01:26:48;;;;;;;105.50;61.93;;;;;;;;;;519038;28;1299;-70
2023/03/04 01:27:03;;;;;;;104.80;62.40;;;;;;;;;;519260;28;1277;-70
2023/03/04 01:27:19;;;;;;;106.78;62.45;;;;;;;;;;521456;28;1211;-70
2023/03/04 01:27:34;;;;;;;106.73;62.37;;;;;;;;;;519917;28;1206;-70
2023/03/04 01:27:49;;;;;;;108.00;62.70;;;;;;;;;;519533;28;1373;-70
2023/03/04 01:28:05;;;;;;;108.17;62.37;;;;;;;;;;524296;28;1470;-70
2023/03/04 01:28:20;;;;;;;105.43;62.53;;;;;;;;;;522205;28;1116;-69
2023/03/04 01:28:36;;;;;;;104.97;62.67;;;;;;;;;;523015;28;1208;-70
2023/03/04 01:28:51;;;;;;;107.20;62.50;;;;;;;;;;521701;28;1229;-70
2023/03/04 01:29:06;;;;;;;110.07;62.50;;;;;;;;;;521602;28;1295;-70
2023/03/04 01:29:22;;;;;;;106.35;61.85;;;;;;;;;;520033;28;1190;-70
2023/03/04 01:29:37;;;;;;;103.37;60.93;;;;;;;;;;519191;28;1307;-70
2023/03/04 01:29:52;;;;;;;110.63;62.53;;;;;;;;;;516054;28;1236;-70
2023/03/04 01:30:08;;;;;;;114.37;64.20;;;;;;;;;;519542;28;1182;-70
2023/03/04 01:30:24;;;;;;;110.22;62.80;;;;;;;;;;517391;28;1278;-69
2023/03/04 01:30:39;;;;;;;108.83;62.43;;;;;;;;;;517673;28;1355;-70
2023/03/04 01:30:54;;;;;;;105.60;61.58;;;;;;;;;;518779;28;1405;-70
2023/03/04 01:31:10;;;;;;;104.30;60.93;;;;;;;;;;518629;28;1423;-70
2023/03/04 01:31:25;;;;;;;107.90;62.27;;;;;;;;;;519503;28;1305;-70
2023/03/04 01:31:40;;;;;;;109.82;63.17;;;;;;;;;;517826;28;1323;-70